createdAt,value
2023-12-08T00:01:14.038Z,98287.72
2023-12-08T00:03:41.081Z,98293.88
2023-12-08T00:06:11.101Z,98292.03
2023-12-08T00:08:39.206Z,98303.47
2023-12-08T00:11:06.672Z,98278.09
2023-12-08T00:13:34.085Z,98267.56
2023-12-08T00:16:01.015Z,98272.81
2023-12-08T00:18:28.353Z,98264.97
2023-12-08T00:20:55.426Z,98279.00
2023-12-08T00:23:22.493Z,98286.19
2023-12-08T00:25:49.526Z,98287.31
2023-12-08T00:28:16.426Z,98285.25
2023-12-08T00:30:43.533Z,98271.63
2023-12-08T00:33:10.604Z,98294.03
2023-12-08T00:35:37.657Z,98302.34
2023-12-08T00:38:04.579Z,98300.78
2023-12-08T00:40:31.519Z,98293.34
2023-12-08T00:42:59.294Z,98290.63
2023-12-08T00:45:26.317Z,98312.19
2023-12-08T00:47:53.934Z,98300.66
2023-12-08T00:50:21.003Z,98309.38
2023-12-08T00:52:48.331Z,98265.13
2023-12-08T00:55:15.544Z,98267.16
2023-12-08T00:57:42.453Z,98270.31
2023-12-08T01:00:09.750Z,98268.78
2023-12-08T01:02:36.976Z,98272.34
2023-12-08T01:05:04.134Z,98276.75
2023-12-08T01:07:31.065Z,98281.75
2023-12-08T01:09:58.096Z,98279.81
2023-12-08T01:12:25.021Z,98285.06
2023-12-08T01:14:52.098Z,98299.56
2023-12-08T01:17:19.051Z,98286.44
2023-12-08T01:19:46.009Z,98294.91
2023-12-08T01:22:12.926Z,98285.69
2023-12-08T01:24:39.883Z,98288.09
2023-12-08T01:27:06.879Z,98310.66
2023-12-08T01:29:33.982Z,98295.72
2023-12-08T01:32:00.910Z,98276.94
2023-12-08T01:34:27.907Z,98284.69
2023-12-08T01:36:54.954Z,98274.25
2023-12-08T01:39:22.126Z,98275.28
2023-12-08T01:41:52.537Z,98266.63
2023-12-08T01:44:19.493Z,98256.66
2023-12-08T01:46:47.424Z,98272.81
2023-12-08T01:49:16.299Z,98273.19
2023-12-08T01:51:45.022Z,98282.25
2023-12-08T01:54:13.851Z,98269.69
2023-12-08T01:56:41.568Z,98268.94
2023-12-08T01:59:09.525Z,98259.56
2023-12-08T02:01:36.514Z,98269.78
2023-12-08T02:04:04.194Z,98258.91
2023-12-08T02:06:31.387Z,98283.63
2023-12-08T02:08:59.329Z,98272.44
2023-12-08T02:11:26.544Z,98282.47
2023-12-08T02:13:54.978Z,98283.97
2023-12-08T02:16:27.381Z,98267.66
2023-12-08T02:18:54.983Z,98257.63
2023-12-08T02:21:22.147Z,98262.50
2023-12-08T02:23:49.687Z,98260.84
2023-12-08T02:26:20.877Z,98250.59
2023-12-08T02:28:48.230Z,98249.38
2023-12-08T02:31:17.085Z,98260.69
2023-12-08T02:33:47.999Z,98229.31
2023-12-08T02:36:17.567Z,98207.38
2023-12-08T02:38:45.426Z,98202.59
2023-12-08T02:41:12.436Z,98178.66
2023-12-08T02:43:39.391Z,98166.88
2023-12-08T02:46:07.788Z,98149.44
2023-12-08T02:48:35.021Z,98148.22
2023-12-08T02:51:02.385Z,98123.38
2023-12-08T02:53:29.553Z,98114.53
2023-12-08T02:55:56.535Z,98130.19
2023-12-08T02:58:23.529Z,98133.44
2023-12-08T03:00:50.488Z,98151.09
2023-12-08T03:03:17.464Z,98120.31
2023-12-08T03:05:44.476Z,98101.56
2023-12-08T03:08:11.379Z,98048.88
2023-12-08T03:10:38.315Z,98042.84
2023-12-08T03:13:05.527Z,98003.91
2023-12-08T03:15:32.440Z,98009.19
2023-12-08T03:17:59.455Z,97999.66
2023-12-08T03:20:26.366Z,98036.94
2023-12-08T03:22:53.307Z,98060.31
2023-12-08T03:25:20.160Z,98046.34
2023-12-08T03:27:47.087Z,98068.06
2023-12-08T03:30:14.753Z,98067.97
2023-12-08T03:32:42.195Z,98108.03
2023-12-08T03:35:09.309Z,98131.25
2023-12-08T03:37:36.233Z,98138.00
2023-12-08T03:40:03.315Z,98145.53
2023-12-08T03:42:36.145Z,98139.91
2023-12-08T03:45:03.280Z,98136.09
2023-12-08T03:47:30.558Z,98175.44
2023-12-08T03:49:57.712Z,98176.59
2023-12-08T03:52:24.607Z,98213.47
2023-12-08T03:54:51.553Z,98223.66
2023-12-08T03:57:18.706Z,98247.50
2023-12-08T03:59:45.638Z,98267.78
2023-12-08T04:02:13.327Z,98285.00
2023-12-08T04:04:42.294Z,98301.84
2023-12-08T04:07:09.253Z,98296.94
2023-12-08T04:09:36.158Z,98310.53
2023-12-08T04:12:03.179Z,98326.56
2023-12-08T04:14:30.152Z,98332.88
2023-12-08T04:16:57.075Z,98354.03
2023-12-08T04:19:24.968Z,98369.31
2023-12-08T04:21:52.522Z,98378.88
2023-12-08T04:24:19.484Z,98378.66
2023-12-08T04:26:46.617Z,98373.56
2023-12-08T04:29:13.650Z,98369.22
2023-12-08T04:31:40.621Z,98369.88
2023-12-08T04:34:07.663Z,98358.00
2023-12-08T04:36:34.814Z,98360.00
2023-12-08T04:39:01.744Z,98359.19
2023-12-08T04:41:28.823Z,98365.06
2023-12-08T04:43:55.939Z,98366.97
2023-12-08T04:46:22.879Z,98356.84
2023-12-08T04:48:50.184Z,98336.81
2023-12-08T04:51:17.260Z,98345.81
2023-12-08T04:53:44.198Z,98332.34
2023-12-08T04:56:11.196Z,98345.25
2023-12-08T04:58:39.375Z,98344.63
2023-12-08T05:01:06.372Z,98342.69
2023-12-08T05:03:33.353Z,98356.22
2023-12-08T05:06:00.559Z,98345.94
2023-12-08T05:08:27.577Z,98343.97
2023-12-08T05:10:54.560Z,98326.22
2023-12-08T05:13:21.773Z,98335.31
2023-12-08T05:15:48.685Z,98323.84
2023-12-08T05:18:15.992Z,98327.00
2023-12-08T05:20:43.551Z,98331.69
2023-12-08T05:23:10.634Z,98338.56
2023-12-08T05:25:37.562Z,98340.31
2023-12-08T05:28:04.917Z,98329.25
2023-12-08T05:30:31.868Z,98328.41
2023-12-08T05:32:59.007Z,98313.13
2023-12-08T05:35:26.429Z,98304.56
2023-12-08T05:37:53.380Z,98290.25
2023-12-08T05:40:20.402Z,98291.09
2023-12-08T05:42:47.378Z,98279.31
2023-12-08T05:45:14.355Z,98267.31
2023-12-08T05:47:41.522Z,98269.19
2023-12-08T05:50:08.818Z,98286.22
2023-12-08T05:52:35.772Z,98290.41
2023-12-08T05:55:02.756Z,98292.63
2023-12-08T05:57:30.394Z,98311.19
2023-12-08T05:59:57.553Z,98328.47
2023-12-08T06:02:24.551Z,98326.09
2023-12-08T06:04:51.483Z,98337.38
2023-12-08T06:09:45.451Z,98329.34
2023-12-08T06:12:12.441Z,98319.66
2023-12-08T06:14:39.382Z,98313.56
2023-12-08T06:17:07.444Z,98306.94
2023-12-08T06:19:35.456Z,98259.84
2023-12-08T06:22:02.399Z,98251.19
2023-12-08T06:24:29.974Z,98238.09
2023-12-08T06:26:56.978Z,98234.31
2023-12-08T06:29:23.989Z,98225.91
2023-12-08T06:31:50.935Z,98196.53
2023-12-08T06:34:18.428Z,98172.41
2023-12-08T06:36:46.735Z,98175.13
2023-12-08T06:39:17.482Z,98163.03
2023-12-08T06:41:45.062Z,98158.34
2023-12-08T06:44:12.183Z,98127.72
2023-12-08T06:46:39.126Z,98122.38
2023-12-08T06:49:06.772Z,98098.44
2023-12-08T06:51:37.457Z,98113.25
2023-12-08T06:54:05.786Z,98125.63
2023-12-08T06:56:33.151Z,98117.44
2023-12-08T06:59:00.094Z,98104.53
2023-12-08T07:01:28.250Z,98112.44
2023-12-08T07:03:55.327Z,98086.00
2023-12-08T07:06:23.943Z,98057.00
2023-12-08T07:08:51.047Z,98060.31
2023-12-08T07:11:18.229Z,98070.94
2023-12-08T07:13:45.140Z,98085.31
2023-12-08T07:16:12.149Z,98088.94
2023-12-08T07:18:39.403Z,98078.78
2023-12-08T07:21:06.727Z,98080.00
2023-12-08T07:23:34.774Z,98073.72
2023-12-08T07:26:02.284Z,98061.63
2023-12-08T07:28:29.608Z,98081.88
2023-12-08T07:30:56.652Z,98113.47
2023-12-08T07:33:23.857Z,98107.78
2023-12-08T07:35:51.024Z,98086.22
2023-12-08T07:38:18.301Z,98065.97
2023-12-08T07:40:46.789Z,98070.03
2023-12-08T07:43:13.846Z,98047.88
2023-12-08T07:45:40.815Z,98035.88
2023-12-08T07:48:08.057Z,98015.69
2023-12-08T07:50:35.224Z,98051.53
2023-12-08T07:53:03.282Z,98033.50
2023-12-08T07:55:30.336Z,98019.16
2023-12-08T07:58:02.696Z,98031.28
2023-12-08T08:00:29.862Z,98045.00
2023-12-08T08:02:56.895Z,98063.16
2023-12-08T08:05:25.486Z,98049.25
2023-12-08T08:07:52.440Z,98069.50
2023-12-08T08:10:19.397Z,98064.13
2023-12-08T08:12:46.317Z,98063.59
2023-12-08T08:15:13.313Z,98063.81
2023-12-08T08:17:40.478Z,98033.31
2023-12-08T08:20:07.867Z,98052.38
2023-12-08T08:22:36.055Z,98074.53
2023-12-08T08:25:03.725Z,98050.31
2023-12-08T08:27:31.963Z,98021.91
2023-12-08T08:29:59.319Z,98024.03
2023-12-08T08:32:26.430Z,98023.19
2023-12-08T08:34:56.285Z,98048.50
2023-12-08T08:37:25.016Z,98007.94
2023-12-08T08:39:52.244Z,97988.44
2023-12-08T08:42:19.351Z,97993.56
2023-12-08T08:44:46.377Z,98006.53
2023-12-08T08:47:13.571Z,97988.59
2023-12-08T08:49:40.721Z,98010.63
2023-12-08T08:52:07.817Z,98027.38
2023-12-08T08:54:34.870Z,98026.97
2023-12-08T08:57:01.816Z,98050.69
2023-12-08T08:59:29.256Z,98042.41
2023-12-08T09:01:56.226Z,98045.44
2023-12-08T09:04:23.699Z,98017.53
2023-12-08T09:06:51.640Z,98002.84
2023-12-08T09:09:18.805Z,98019.53
2023-12-08T09:11:45.907Z,97983.69
2023-12-08T09:14:12.963Z,97973.38
2023-12-08T09:16:40.516Z,97902.38
2023-12-08T09:19:08.298Z,97874.72
2023-12-08T09:21:42.405Z,97901.88
2023-12-08T09:24:16.090Z,97943.25
2023-12-08T09:26:43.094Z,97977.59
2023-12-08T09:29:10.705Z,97975.06
2023-12-08T09:31:37.635Z,97973.88
2023-12-08T09:34:04.774Z,97943.53
2023-12-08T09:36:32.438Z,97928.28
2023-12-08T09:38:59.437Z,97894.38
2023-12-08T09:41:28.394Z,97829.53
2023-12-08T09:43:58.663Z,97822.91
2023-12-08T09:46:25.722Z,97880.53
2023-12-08T10:21:14.834Z,99087.56
2023-12-08T10:23:42.940Z,99128.00
2023-12-08T10:26:10.456Z,99133.31
2023-12-08T10:28:37.532Z,99053.09
2023-12-08T10:31:06.032Z,98813.44
2023-12-08T10:33:33.279Z,98700.81
2023-12-08T10:36:01.292Z,98639.28
2023-12-08T10:38:28.231Z,98601.34
2023-12-08T10:40:55.157Z,98532.25
2023-12-08T10:43:27.080Z,98508.63
2023-12-08T10:45:54.414Z,98508.50
2023-12-08T10:48:22.358Z,98507.09
2023-12-08T10:50:50.352Z,98487.03
2023-12-08T10:53:18.918Z,98406.78
2023-12-08T10:55:53.652Z,98416.34
2023-12-08T10:58:21.651Z,98430.50
2023-12-08T11:00:50.113Z,98435.78
2023-12-08T11:03:21.474Z,98421.69
2023-12-08T11:06:04.715Z,98397.88
2023-12-08T11:08:32.558Z,98334.66
2023-12-08T11:11:00.068Z,98322.94
2023-12-08T11:13:28.658Z,98290.06
2023-12-08T11:16:06.509Z,98290.56
2023-12-08T11:18:36.837Z,98313.53
2023-12-08T11:21:05.223Z,98336.50
2023-12-08T11:23:32.668Z,98326.44
2023-12-08T11:26:05.915Z,98351.34
2023-12-08T11:28:40.898Z,98312.28
2023-12-08T11:31:11.798Z,98277.28
2023-12-08T11:33:48.996Z,98229.84
2023-12-08T11:36:19.720Z,98243.97
2023-12-08T11:38:47.587Z,98255.81
2023-12-08T11:41:15.457Z,98290.34
2023-12-08T11:43:51.694Z,98242.16
2023-12-08T11:46:18.678Z,98288.88
2023-12-08T11:48:49.381Z,98282.22
2023-12-08T11:51:17.256Z,98317.16
2023-12-08T11:53:57.239Z,98303.25
2023-12-08T11:56:43.381Z,98272.25
2023-12-08T11:59:15.367Z,98267.09
2023-12-08T12:01:42.862Z,98253.31
2023-12-08T12:04:10.578Z,98325.72
2023-12-08T12:06:37.778Z,98344.72
2023-12-08T12:09:06.293Z,98377.88
2023-12-08T12:11:36.725Z,98399.59
2023-12-08T12:14:05.946Z,98412.19
2023-12-08T12:16:33.080Z,98373.75
2023-12-08T12:19:00.190Z,98357.31
2023-12-08T12:21:28.277Z,98370.84
2023-12-08T12:23:55.419Z,98339.72
2023-12-08T12:26:22.555Z,98329.91
2023-12-08T12:28:49.629Z,98292.56
2023-12-08T12:31:19.452Z,98232.94
2023-12-08T12:33:49.905Z,98173.25
2023-12-08T12:36:17.604Z,98228.94
2023-12-08T12:38:44.649Z,98273.56
2023-12-08T12:41:21.705Z,98320.38
2023-12-08T12:43:48.929Z,98340.47
2023-12-08T12:46:15.925Z,98328.03
2023-12-08T12:48:43.088Z,98323.97
2023-12-08T12:51:10.203Z,98337.91
2023-12-08T12:53:46.760Z,98352.59
2023-12-08T12:56:13.980Z,98356.84
2023-12-08T12:58:41.125Z,98340.09
2023-12-08T13:01:14.459Z,98371.03
2023-12-08T13:03:46.754Z,98342.28
2023-12-08T13:06:14.236Z,98321.72
2023-12-08T13:08:47.352Z,98313.81
2023-12-08T13:11:14.442Z,98264.09
2023-12-08T13:13:41.425Z,98228.16
2023-12-08T13:16:08.704Z,98227.69
2023-12-08T13:18:36.540Z,98221.75
2023-12-08T13:21:03.703Z,98212.22
2023-12-08T13:23:30.764Z,98244.03
2023-12-08T13:25:57.674Z,98284.59
2023-12-08T13:28:24.681Z,98338.97
2023-12-08T13:30:51.624Z,98341.38
2023-12-08T13:33:18.812Z,98298.59
2023-12-08T13:35:46.204Z,98273.06
2023-12-08T13:38:13.442Z,98273.84
2023-12-08T13:40:41.112Z,98259.41
2023-12-08T13:43:08.055Z,98258.09
2023-12-08T13:45:35.260Z,98231.03
2023-12-08T13:48:02.474Z,98163.34
2023-12-08T13:50:29.730Z,98148.91
2023-12-08T13:52:56.715Z,98165.28
2023-12-08T13:55:23.710Z,98219.34
2023-12-08T13:57:50.687Z,98228.84
2023-12-08T14:00:18.056Z,98274.28
2023-12-08T14:02:45.481Z,98259.31
2023-12-08T14:05:12.526Z,98227.06
2023-12-08T14:07:39.804Z,98208.00
2023-12-08T14:10:07.042Z,98221.06
2023-12-08T14:12:33.944Z,98237.47
2023-12-08T14:15:00.933Z,98257.28
2023-12-08T14:17:28.379Z,98296.28
2023-12-08T14:19:55.772Z,98316.19
2023-12-08T14:22:22.785Z,98356.44
2023-12-08T14:24:50.464Z,98360.78
2023-12-08T14:27:17.513Z,98335.00
2023-12-08T14:29:44.576Z,98318.13
2023-12-08T14:32:11.617Z,98323.09
2023-12-08T14:34:38.764Z,98305.28
2023-12-08T14:37:08.278Z,98296.53
2023-12-08T14:39:35.398Z,98323.34
2023-12-08T14:42:02.409Z,98322.56
2023-12-08T14:44:30.414Z,98295.09
2023-12-08T14:46:57.418Z,98223.53
2023-12-08T14:49:24.520Z,98165.47
2023-12-08T14:51:51.531Z,98148.25
2023-12-08T14:54:22.937Z,98164.72
2023-12-08T14:56:53.801Z,98189.06
2023-12-08T14:59:21.049Z,98172.75
2023-12-08T15:01:48.223Z,98151.19
2023-12-08T15:04:15.458Z,98127.22
2023-12-08T15:06:42.684Z,98136.00
2023-12-08T15:09:09.810Z,98124.84
2023-12-08T15:11:36.858Z,98135.00
2023-12-08T15:14:03.984Z,98140.06
2023-12-08T15:16:31.359Z,98157.75
2023-12-08T15:18:58.430Z,98170.19
2023-12-08T15:21:27.893Z,98175.53
2023-12-08T15:23:58.306Z,98186.63
2023-12-08T15:26:26.092Z,98158.41
2023-12-08T15:28:53.212Z,98141.34
2023-12-08T15:31:20.271Z,98143.84
2023-12-08T15:33:47.823Z,98160.22
2023-12-08T15:36:15.272Z,98169.88
2023-12-08T15:38:43.846Z,98184.31
2023-12-08T15:41:12.053Z,98232.63
2023-12-08T15:43:40.489Z,98254.63
2023-12-08T15:46:08.421Z,98250.50
2023-12-08T15:48:36.343Z,98236.03
2023-12-08T15:51:08.381Z,98253.28
2023-12-08T15:53:35.327Z,98239.44
2023-12-08T15:56:02.335Z,98208.72
2023-12-08T15:58:29.306Z,98198.59
2023-12-08T16:00:56.296Z,98193.50
2023-12-08T16:03:23.408Z,98176.31
2023-12-08T16:05:50.568Z,98157.25
2023-12-08T16:08:17.662Z,98140.25
2023-12-08T16:10:44.582Z,98115.31
2023-12-08T16:13:11.721Z,98106.78
2023-12-08T16:15:38.848Z,98100.41
2023-12-08T16:18:06.026Z,98110.06
2023-12-08T16:20:33.387Z,98090.41
2023-12-08T16:23:01.696Z,98094.59
2023-12-08T16:25:28.644Z,98090.13
2023-12-08T16:27:55.641Z,98071.53
2023-12-08T16:30:22.628Z,98093.06
2023-12-08T16:32:50.465Z,98119.56
2023-12-08T16:35:17.546Z,98159.69
2023-12-08T16:37:44.802Z,98158.28
2023-12-08T16:40:13.474Z,98196.34
2023-12-08T16:42:40.672Z,98251.19
2023-12-08T16:45:07.957Z,98260.88
2023-12-08T16:47:35.089Z,98297.88
2023-12-08T16:50:02.228Z,98311.84
2023-12-08T16:52:29.416Z,98315.25
2023-12-08T16:54:56.709Z,98319.63
2023-12-08T16:57:23.754Z,98310.16
2023-12-08T16:59:52.681Z,98308.00
2023-12-08T17:02:19.679Z,98307.03
2023-12-08T17:04:46.798Z,98302.53
2023-12-08T17:07:14.372Z,98307.34
2023-12-08T17:09:42.203Z,98340.88
2023-12-08T17:12:09.353Z,98351.84
2023-12-08T17:14:36.333Z,98353.91
2023-12-08T17:17:04.429Z,98369.44
2023-12-08T17:19:31.521Z,98389.19
2023-12-08T17:21:58.588Z,98375.19
2023-12-08T17:24:26.127Z,98350.03
2023-12-08T17:26:55.756Z,98323.56
2023-12-08T17:29:22.899Z,98323.34
2023-12-08T17:31:50.215Z,98322.69
2023-12-08T17:34:22.161Z,98330.09
2023-12-08T17:36:50.656Z,98307.53
2023-12-08T17:39:20.621Z,98306.84
2023-12-08T17:41:48.049Z,98293.31
2023-12-08T17:44:15.284Z,98268.13
2023-12-08T17:46:42.516Z,98301.59
2023-12-08T17:49:09.668Z,98310.16
2023-12-08T17:51:37.074Z,98305.91
2023-12-08T17:54:04.146Z,98303.09
2023-12-08T17:56:31.142Z,98255.59
2023-12-08T17:58:58.122Z,98222.28
2023-12-08T18:01:25.264Z,98181.53
2023-12-08T18:03:52.575Z,98162.16
2023-12-08T18:06:22.124Z,98161.56
2023-12-08T18:08:49.324Z,98171.44
2023-12-08T18:11:26.077Z,98207.69
2023-12-08T18:13:55.237Z,98260.34
2023-12-08T18:16:29.494Z,98300.31
2023-12-08T18:18:57.543Z,98333.88
2023-12-08T18:21:31.459Z,98333.66
2023-12-08T18:23:59.118Z,98335.59
2023-12-08T18:26:29.003Z,98294.69
2023-12-08T18:29:08.289Z,98289.44
2023-12-08T18:31:37.031Z,98269.72
2023-12-08T18:34:05.977Z,98296.03
2023-12-08T18:36:36.404Z,98292.13
2023-12-08T18:39:07.893Z,98276.75
2023-12-08T18:41:35.693Z,98306.69
2023-12-08T18:44:02.748Z,98339.66
2023-12-08T18:46:29.700Z,98353.97
2023-12-08T18:48:59.129Z,98371.16
2023-12-08T18:51:27.304Z,98377.41
2023-12-08T18:53:54.329Z,98382.69
2023-12-08T18:56:21.936Z,98371.25
2023-12-08T18:58:51.454Z,98358.28
2023-12-08T19:01:18.671Z,98337.25
2023-12-08T19:03:45.803Z,98337.13
2023-12-08T19:06:12.982Z,98320.19
2023-12-08T19:08:40.275Z,98330.03
2023-12-08T19:11:07.388Z,98333.69
2023-12-08T19:13:34.469Z,98360.09
2023-12-08T19:16:01.530Z,98366.03
2023-12-08T19:18:28.738Z,98411.84
2023-12-08T19:20:55.807Z,98376.41
2023-12-08T19:23:25.962Z,98390.19
2023-12-08T19:26:53.004Z,63491.53
2023-12-08T19:30:18.651Z,63491.53
2023-12-08T19:33:44.410Z,63491.53
2023-12-08T19:37:10.048Z,63491.53
2023-12-08T19:40:35.797Z,63491.53
2023-12-08T19:44:01.397Z,63491.53
2023-12-08T19:47:30.218Z,63491.53
2023-12-08T19:50:56.602Z,63491.53
2023-12-08T19:54:22.282Z,63491.53
2023-12-08T19:57:47.974Z,63491.53
2023-12-08T20:01:13.792Z,63491.53
2023-12-08T20:04:39.280Z,63491.53
2023-12-08T20:08:05.229Z,63491.53
2023-12-08T20:11:31.615Z,63491.53
2023-12-08T20:14:57.582Z,63491.53
2023-12-08T20:18:23.353Z,63491.53
2023-12-08T20:21:49.436Z,63491.53
2023-12-08T20:25:18.643Z,63491.53
2023-12-08T20:28:44.318Z,63491.53
2023-12-08T20:32:09.795Z,63491.53
2023-12-08T20:35:35.363Z,63491.53
2023-12-08T20:39:01.032Z,63491.53
2023-12-08T20:42:28.604Z,63491.53
2023-12-08T20:45:54.748Z,63491.53
2023-12-08T20:49:21.315Z,63491.53
2023-12-08T20:52:47.007Z,63491.53
2023-12-08T20:56:18.439Z,63491.53
2023-12-08T20:59:45.238Z,63491.53
2023-12-08T21:03:11.348Z,63491.53
2023-12-08T21:06:36.970Z,63491.53
2023-12-08T21:10:02.589Z,63491.53
2023-12-08T21:12:29.515Z,98198.94
2023-12-08T21:14:56.499Z,98244.22
2023-12-08T21:17:23.599Z,98294.19
2023-12-08T21:19:50.703Z,98352.53
2023-12-08T21:22:18.219Z,98359.53
2023-12-08T21:24:45.101Z,98373.31
2023-12-08T21:27:15.498Z,98374.84
2023-12-08T21:29:42.561Z,98367.41
2023-12-08T21:32:09.567Z,98340.06
2023-12-08T21:34:36.462Z,98312.75
2023-12-08T21:37:03.650Z,98335.53
2023-12-08T21:39:30.782Z,98341.50
2023-12-08T21:41:57.851Z,98341.50
2023-12-08T21:44:25.008Z,98331.59
2023-12-08T21:46:52.683Z,98355.50
2023-12-08T21:49:20.533Z,98353.16
2023-12-08T21:51:47.884Z,98369.91
2023-12-08T21:54:14.912Z,98356.13
2023-12-08T21:56:42.572Z,98342.41
2023-12-08T21:59:09.659Z,98312.84
2023-12-08T22:01:36.627Z,98316.91
2023-12-08T22:04:03.654Z,98339.84
2023-12-08T22:06:32.010Z,98339.56
2023-12-08T22:09:00.549Z,98334.13
2023-12-08T22:11:27.580Z,98330.72
2023-12-08T22:13:54.498Z,98317.34
2023-12-08T22:16:25.386Z,98315.41
2023-12-08T22:18:53.137Z,98296.84
2023-12-08T22:21:20.454Z,98297.84
2023-12-08T22:23:47.594Z,98286.06
2023-12-08T22:26:14.734Z,98262.50
2023-12-08T22:28:41.920Z,98222.03
2023-12-08T22:31:08.993Z,98206.59
2023-12-08T22:33:37.707Z,98197.91
2023-12-08T22:36:04.946Z,98216.47
2023-12-08T22:38:31.820Z,98238.59
2023-12-08T22:40:58.767Z,98227.94
2023-12-08T22:43:25.813Z,98247.63
2023-12-08T22:45:52.755Z,98232.28
2023-12-08T22:48:19.893Z,98253.75
2023-12-08T22:50:50.374Z,98259.31
2023-12-08T22:53:19.902Z,98279.44
2023-12-08T22:55:46.861Z,98290.81
2023-12-08T22:58:14.662Z,98295.91
2023-12-08T23:00:41.681Z,98272.91
2023-12-08T23:03:08.829Z,98261.31
2023-12-08T23:05:35.843Z,98263.88
2023-12-08T23:08:03.598Z,98277.75
2023-12-08T23:10:30.484Z,98298.91
2023-12-08T23:12:57.387Z,98322.81
2023-12-08T23:15:24.426Z,98329.66
2023-12-08T23:17:51.490Z,98345.22
2023-12-08T23:20:18.535Z,98361.97
2023-12-08T23:22:45.540Z,98381.72
2023-12-08T23:25:12.570Z,98433.44
2023-12-08T23:27:39.529Z,98435.31
2023-12-08T23:30:07.048Z,98445.00
2023-12-08T23:32:34.438Z,98479.53
2023-12-08T23:35:05.041Z,98481.66
2023-12-08T23:37:32.378Z,98488.75
2023-12-08T23:39:59.571Z,98497.88
2023-12-08T23:42:26.987Z,98482.13
2023-12-08T23:44:54.215Z,98491.19
2023-12-08T23:47:21.282Z,98532.06
2023-12-08T23:49:48.461Z,98538.03
2023-12-08T23:52:15.588Z,98573.09
2023-12-08T23:54:42.754Z,98602.63
2023-12-08T23:57:09.892Z,98642.75
2023-12-08T23:59:36.844Z,98654.22
